Time;durP1;ratioP1;P1;durP2;ratioP2;P2;SDS_P1;SDS_P2;PMS_P1;PMS_P2;Temp;Humidity;BMP_temperature;BMP_pressure;BME280_temperature;BME280_humidity;BME280_pressure;Samples;Min_cycle;Max_cycle;Signal;HPM_P1;HPM_P2
2024/04/17 00:02:23;;;;;;;5.97;4.93;;;;;;;5.40;83.51;98822.88;5450442;26;20226;-65
2024/04/17 00:04:52;;;;;;;6.90;4.70;;;;;;;5.38;83.72;98819.50;5452222;26;20245;-65
2024/04/17 00:07:22;;;;;;;8.13;4.80;;;;;;;5.31;83.26;98824.69;5449645;26;20254;-64
2024/04/17 00:09:50;;;;;;;10.73;5.50;;;;;;;5.30;83.67;98823.00;5451058;26;20234;-66
2024/04/17 00:12:19;;;;;;;10.07;5.03;;;;;;;5.11;83.55;98801.03;5450076;26;20254;-67
2024/04/17 00:14:46;;;;;;;7.27;4.90;;;;;;;5.23;83.44;98821.34;5451294;26;20641;-65
2024/04/17 00:17:16;;;;;;;6.93;4.70;;;;;;;5.21;83.47;98828.16;5450842;26;20234;-65
2024/04/17 00:19:43;;;;;;;7.70;5.23;;;;;;;5.21;83.77;98838.38;5451162;26;20297;-64
2024/04/17 00:22:16;;;;;;;8.37;5.07;;;;;;;5.24;84.11;98843.47;5451395;26;20705;-66
2024/04/17 00:24:46;;;;;;;6.53;4.33;;;;;;;5.26;84.01;98836.63;5442718;26;20580;-65
2024/04/17 00:27:13;;;;;;;6.27;3.67;;;;;;;5.27;84.12;98840.88;5451146;26;20703;-65
2024/04/17 00:29:43;;;;;;;5.70;4.03;;;;;;;5.26;82.13;98839.19;5450289;26;20241;-62
2024/04/17 00:32:10;;;;;;;9.33;5.73;;;;;;;5.21;81.77;98835.84;5441863;26;20342;-66
2024/04/17 00:34:40;;;;;;;5.47;4.50;;;;;;;5.19;81.92;98844.34;5448886;26;20246;-61
2024/04/17 00:37:07;;;;;;;5.60;4.57;;;;;;;5.13;82.30;98840.16;5450483;26;20234;-63
2024/04/17 00:39:39;;;;;;;6.00;4.10;;;;;;;5.05;82.67;98836.84;5450339;26;20257;-62
2024/04/17 00:42:06;;;;;;;6.70;4.03;;;;;;;5.03;83.12;98838.56;5448858;26;20296;-64
2024/04/17 00:44:36;;;;;;;6.60;4.40;;;;;;;4.99;83.05;98834.34;5450745;26;20342;-64
2024/04/17 00:47:05;;;;;;;8.43;4.67;;;;;;;5.01;83.26;98843.69;5450603;26;20755;-63
2024/04/17 00:49:35;;;;;;;8.97;4.50;;;;;;;5.02;83.03;98847.91;5450919;26;20614;-63
2024/04/17 00:52:03;;;;;;;5.53;4.00;;;;;;;5.04;82.68;98835.13;5448604;26;20292;-65
2024/04/17 00:54:33;;;;;;;6.53;4.50;;;;;;;5.02;82.11;98837.72;5447784;26;20281;-64
2024/04/17 00:57:05;;;;;;;7.57;4.57;;;;;;;4.98;81.83;98837.75;5450877;26;20234;-63
2024/04/17 00:59:35;;;;;;;8.07;5.10;;;;;;;4.94;81.79;98833.53;5447780;26;20343;-64
2024/04/17 01:02:02;;;;;;;7.70;4.40;;;;;;;4.76;81.58;98814.97;5449233;26;20230;-64
2024/04/17 01:04:33;;;;;;;6.57;4.80;;;;;;;4.83;81.94;98838.72;5450841;26;20234;-65
2024/04/17 01:07:00;;;;;;;9.00;5.07;;;;;;;4.79;81.83;98835.34;5450748;26;20342;-64
2024/04/17 01:09:30;;;;;;;8.87;4.83;;;;;;;4.75;81.87;98838.78;5446321;26;20258;-64
2024/04/17 01:11:57;;;;;;;7.40;4.20;;;;;;;4.68;82.38;98837.13;5449801;26;20633;-65
2024/04/17 01:14:30;;;;;;;8.03;4.57;;;;;;;4.63;82.42;98843.13;5438153;26;20258;-64
2024/04/17 01:16:57;;;;;;;8.00;4.70;;;;;;;4.56;82.69;98837.22;5448333;26;20291;-64
2024/04/17 01:19:27;;;;;;;8.33;5.20;;;;;;;4.56;82.78;98839.75;5449474;26;20233;-64
2024/04/17 01:21:54;;;;;;;7.80;4.43;;;;;;;4.54;82.76;98838.94;5449108;26;20264;-64
2024/04/17 01:24:26;;;;;;;6.93;4.93;;;;;;;4.52;82.73;98845.75;5449147;26;20285;-65
2024/04/17 01:26:53;;;;;;;8.50;5.13;;;;;;;4.50;82.60;98830.47;5448163;26;20254;-64
2024/04/17 01:29:23;;;;;;;7.60;4.73;;;;;;;4.50;82.85;98833.00;5449911;26;20338;-63
2024/04/17 01:31:50;;;;;;;8.70;5.10;;;;;;;4.48;82.88;98828.75;5444198;26;20307;-64
2024/04/17 01:34:20;;;;;;;9.03;4.70;;;;;;;4.43;82.73;98828.81;5440878;26;20744;-64
2024/04/17 01:36:47;;;;;;;8.47;5.03;;;;;;;4.41;82.78;98827.94;5446991;26;20621;-64
2024/04/17 01:39:17;;;;;;;7.80;5.60;;;;;;;4.38;82.87;98817.75;5450178;26;20233;-65
2024/04/17 01:41:47;;;;;;;8.27;5.50;;;;;;;4.34;82.91;98832.28;5449362;26;20234;-63
2024/04/17 01:44:16;;;;;;;7.47;4.83;;;;;;;4.34;83.27;98832.28;5448257;26;20779;-67
2024/04/17 01:46:55;;;;;;;6.13;4.97;;;;;;;4.36;83.28;98833.09;5449479;26;20281;-66
2024/04/17 01:49:25;;;;;;;8.43;5.00;;;;;;;4.38;83.11;98825.41;5448057;26;20261;-65
2024/04/17 01:51:52;;;;;;;8.63;5.37;;;;;;;4.20;83.14;98792.38;5449012;26;21118;-64
2024/04/17 01:54:22;;;;;;;9.60;5.77;;;;;;;4.34;82.80;98811.88;5446617;26;20288;-66
2024/04/17 01:56:52;;;;;;;8.13;5.70;;;;;;;4.32;83.21;98808.47;5448782;26;20289;-66
2024/04/17 01:59:21;;;;;;;7.40;5.00;;;;;;;4.28;83.36;98800.84;5449476;26;20281;-66
2024/04/17 02:01:49;;;;;;;8.47;5.27;;;;;;;4.27;83.27;98799.13;5449673;26;20338;-63
2024/04/17 02:04:19;;;;;;;8.67;4.90;;;;;;;4.22;83.21;98801.72;5448866;26;20242;-65
2024/04/17 02:06:46;;;;;;;7.87;5.07;;;;;;;4.17;83.32;98806.00;5455986;26;20300;-65
2024/04/17 02:09:15;;;;;;;8.67;5.13;;;;;;;4.14;83.71;98797.53;5423024;26;20230;-67
2024/04/17 02:11:44;;;;;;;8.83;4.77;;;;;;;4.11;83.91;98808.59;5447133;26;20289;-65
2024/04/17 02:14:17;;;;;;;9.27;5.57;;;;;;;4.07;84.03;98791.63;5436630;26;20592;-65
2024/04/17 02:16:44;;;;;;;10.60;5.03;;;;;;;4.08;83.67;98793.31;5449128;26;20545;-66
2024/04/17 02:19:14;;;;;;;5.53;4.70;;;;;;;4.08;83.59;98790.75;5449291;26;20246;-68
2024/04/17 02:21:41;;;;;;;13.70;5.40;;;;;;;4.06;83.79;98795.88;5449523;26;20234;-64
2024/04/17 02:24:11;;;;;;;7.50;5.53;;;;;;;4.04;83.89;98781.44;5446375;26;20246;-66
2024/04/17 02:26:38;;;;;;;9.07;6.07;;;;;;;4.04;83.68;98777.19;5451711;26;20345;-64
2024/04/17 02:29:08;;;;;;;7.47;5.37;;;;;;;4.04;83.84;98768.69;5450679;26;20783;-66
2024/04/17 02:31:38;;;;;;;9.63;5.47;;;;;;;4.04;83.73;98768.69;5443687;26;20234;-67
2024/04/17 02:34:07;;;;;;;8.10;5.47;;;;;;;4.04;83.23;98782.28;5450796;26;20779;-64
2024/04/17 02:36:35;;;;;;;7.50;5.50;;;;;;;4.03;83.93;98779.75;5451729;26;20816;-65
2024/04/17 02:39:05;;;;;;;9.20;5.67;;;;;;;4.04;83.88;98776.34;5452265;26;20234;-66
2024/04/17 02:41:32;;;;;;;8.43;5.67;;;;;;;4.07;84.39;98776.34;5432869;26;20842;-64
2024/04/17 02:44:02;;;;;;;7.27;5.00;;;;;;;4.05;84.15;98768.72;5451073;26;20297;-64
2024/04/17 02:46:30;;;;;;;8.03;5.17;;;;;;;4.09;83.77;98777.19;5449745;26;20349;-66
2024/04/17 02:49:03;;;;;;;12.00;5.60;;;;;;;4.09;83.63;98772.09;5452255;26;20298;-65
2024/04/17 02:51:30;;;;;;;9.50;5.80;;;;;;;4.06;83.79;98774.66;5453146;26;20657;-66
2024/04/17 02:54:00;;;;;;;11.30;5.50;;;;;;;4.05;83.78;98772.94;5448217;26;20242;-62
2024/04/17 02:56:29;;;;;;;8.47;5.47;;;;;;;4.06;83.90;98774.66;5448372;26;20347;-64
2024/04/17 02:58:59;;;;;;;8.80;5.47;;;;;;;4.07;83.54;98771.22;5452075;26;20342;-62
2024/04/17 03:01:26;;;;;;;10.47;4.90;;;;;;;4.06;83.52;98777.19;5451963;26;20226;-62
2024/04/17 03:03:56;;;;;;;10.70;5.70;;;;;;;4.05;83.68;98778.03;5447568;26;20317;-62
2024/04/17 03:06:26;;;;;;;7.57;5.47;;;;;;;4.02;83.63;98767.88;5450568;26;20250;-63
2024/04/17 03:08:56;;;;;;;8.93;5.73;;;;;;;4.01;83.67;98773.81;5452220;26;20725;-63
2024/04/17 03:11:23;;;;;;;7.13;5.50;;;;;;;4.01;83.86;98776.34;5451611;26;20733;-61
2024/04/17 03:13:53;;;;;;;7.30;5.33;;;;;;;4.01;83.81;98784.00;5449276;26;20238;-62
2024/04/17 03:16:20;;;;;;;7.53;5.60;;;;;;;4.02;83.53;98788.25;5452085;26;20236;-62
2024/04/17 03:18:50;;;;;;;9.53;5.50;;;;;;;4.01;83.55;98784.84;5452164;26;20277;-62
2024/04/17 03:21:17;;;;;;;7.30;5.67;;;;;;;3.98;83.65;98791.69;5452150;26;20264;-63
2024/04/17 03:23:50;;;;;;;10.17;6.67;;;;;;;3.96;83.54;98793.38;5447951;26;20334;-61
2024/04/17 03:26:17;;;;;;;7.03;5.00;;;;;;;3.93;83.85;98790.84;5452537;26;20281;-62
2024/04/17 03:28:47;;;;;;;11.17;5.63;;;;;;;3.91;83.94;98800.22;5451384;26;20233;-62
2024/04/17 03:31:14;;;;;;;8.47;5.57;;;;;;;3.84;83.85;98797.69;5450394;26;20257;-62
2024/04/17 03:33:44;;;;;;;11.90;6.70;;;;;;;3.85;83.83;98801.91;5449279;26;20362;-65
2024/04/17 03:36:11;;;;;;;9.73;6.30;;;;;;;3.85;84.05;98807.00;5439913;26;20713;-62
2024/04/17 03:38:41;;;;;;;8.40;5.63;;;;;;;3.80;84.09;98808.75;5450255;26;20268;-62
2024/04/17 03:41:13;;;;;;;10.67;6.40;;;;;;;3.79;84.52;98801.09;5427823;26;20813;-63
2024/04/17 03:43:43;;;;;;;8.83;6.67;;;;;;;3.78;84.56;98813.00;5451825;26;20721;-64
2024/04/17 03:46:13;;;;;;;9.77;6.00;;;;;;;3.78;84.63;98814.69;5450228;26;20234;-63
2024/04/17 03:48:40;;;;;;;11.37;6.00;;;;;;;3.78;84.65;98809.59;5451298;26;20717;-63
2024/04/17 03:51:10;;;;;;;9.90;6.40;;;;;;;3.73;84.93;98801.97;5449707;26;20246;-61
2024/04/17 03:53:37;;;;;;;8.67;5.90;;;;;;;3.82;84.48;98813.81;5418829;26;20247;-64
2024/04/17 03:56:07;;;;;;;12.73;6.50;;;;;;;3.81;84.69;98810.44;5450901;26;20642;-62
2024/04/17 03:58:37;;;;;;;10.53;6.40;;;;;;;3.86;84.92;98813.78;5451822;26;20725;-62
2024/04/17 04:01:07;;;;;;;10.63;6.77;;;;;;;3.91;85.16;98812.97;5451523;26;20277;-63
2024/04/17 04:03:34;;;;;;;12.60;7.13;;;;;;;3.95;84.65;98817.19;5451316;26;20708;-62
2024/04/17 04:06:04;;;;;;;10.70;6.40;;;;;;;4.00;85.04;98820.53;5447385;26;20245;-64
2024/04/17 04:08:31;;;;;;;10.57;6.67;;;;;;;4.05;84.55;98824.78;5451621;26;20814;-64
2024/04/17 04:11:01;;;;;;;10.90;6.30;;;;;;;4.10;84.03;98828.13;5451582;26;20241;-65
2024/04/17 04:13:29;;;;;;;10.20;6.47;;;;;;;4.17;83.80;98833.22;5451612;26;20269;-63
2024/04/17 04:16:01;;;;;;;9.93;6.50;;;;;;;4.20;83.54;98825.53;5446493;26;20292;-64
2024/04/17 04:18:29;;;;;;;11.90;6.20;;;;;;;4.20;82.85;98830.63;5451529;26;20713;-64
2024/04/17 04:20:59;;;;;;;10.30;6.27;;;;;;;4.17;83.17;98834.06;5450483;26;20773;-65
2024/04/17 04:23:26;;;;;;;8.43;6.50;;;;;;;4.17;82.92;98828.13;5448641;26;20825;-65
2024/04/17 04:25:56;;;;;;;9.73;6.63;;;;;;;4.17;82.85;98833.22;5448018;26;20292;-63
2024/04/17 04:28:23;;;;;;;8.90;6.90;;;;;;;4.24;82.93;98840.81;5447558;26;20297;-62
2024/04/17 04:30:53;;;;;;;9.97;6.40;;;;;;;4.33;82.80;98828.00;5447446;26;20377;-63
2024/04/17 04:33:23;;;;;;;10.70;6.83;;;;;;;4.46;82.57;98835.59;5449276;26;20342;-65
2024/04/17 04:35:53;;;;;;;8.63;6.00;;;;;;;4.58;82.45;98832.97;5448990;26;20254;-64
2024/04/17 04:38:20;;;;;;;9.37;6.53;;;;;;;4.71;82.05;98839.66;5451169;26;20713;-63
2024/04/17 04:40:50;;;;;;;9.17;6.27;;;;;;;4.82;80.92;98840.44;5444694;26;20353;-64
2024/04/17 04:43:17;;;;;;;10.17;6.47;;;;;;;4.95;80.26;98845.44;5449478;26;20317;-64
2024/04/17 04:45:47;;;;;;;10.50;6.87;;;;;;;5.03;79.59;98849.59;5451146;26;20790;-64
2024/04/17 04:48:14;;;;;;;10.23;6.20;;;;;;;5.09;79.02;98843.63;5444894;26;20281;-65
2024/04/17 04:50:46;;;;;;;8.03;5.73;;;;;;;5.24;79.34;98847.72;5449274;26;20246;-63
2024/04/17 04:53:14;;;;;;;9.10;6.43;;;;;;;5.37;78.96;98849.28;5452517;26;20328;-63
2024/04/17 04:55:43;;;;;;;10.13;6.23;;;;;;;5.54;78.49;98851.69;5446908;26;20241;-66
2024/04/17 04:58:11;;;;;;;9.30;5.77;;;;;;;5.61;76.99;98852.47;5441495;26;20736;-67
2024/04/17 05:00:41;;;;;;;10.13;6.00;;;;;;;5.69;76.54;98858.34;5452357;26;20234;-68
2024/04/17 05:03:08;;;;;;;10.93;6.20;;;;;;;5.81;75.78;98861.59;5452034;26;20242;-67
2024/04/17 05:05:38;;;;;;;10.50;6.53;;;;;;;5.92;75.76;98870.84;5451048;26;20301;-69
2024/04/17 05:08:08;;;;;;;9.60;6.10;;;;;;;5.96;75.00;98869.97;5449214;26;20322;-67
2024/04/17 05:10:38;;;;;;;8.50;6.17;;;;;;;6.09;75.65;98865.59;5446682;26;20269;-67
2024/04/17 05:13:07;;;;;;;9.10;6.50;;;;;;;6.30;75.42;98860.19;5445582;26;20238;-61
2024/04/17 05:15:37;;;;;;;9.33;6.03;;;;;;;6.39;73.43;98874.56;5448460;26;20624;-67
2024/04/17 05:18:05;;;;;;;10.10;6.10;;;;;;;6.45;73.53;98874.50;5446073;26;20238;-67
2024/04/17 05:20:35;;;;;;;10.20;5.83;;;;;;;6.66;73.75;98874.16;5443740;26;20350;-63
2024/04/17 05:23:02;;;;;;;9.07;6.13;;;;;;;6.94;72.36;98877.16;5439167;26;20735;-68
2024/04/17 05:25:35;;;;;;;10.50;5.97;;;;;;;7.24;72.43;98880.94;5443496;26;20293;-67
2024/04/17 05:28:02;;;;;;;7.80;6.03;;;;;;;7.46;70.69;98883.13;5450385;26;20286;-69
2024/04/17 05:30:33;;;;;;;10.77;7.07;;;;;;;7.36;69.72;98886.72;5447421;26;20748;-69
2024/04/17 05:33:00;;;;;;;8.87;6.43;;;;;;;7.09;70.44;98891.44;5449603;26;20752;-66
2024/04/17 05:35:30;;;;;;;12.33;6.80;;;;;;;6.89;71.18;98896.03;5445117;26;20254;-67
2024/04/17 05:37:57;;;;;;;9.13;6.17;;;;;;;6.78;72.19;98894.47;5449875;26;20246;-68
2024/04/17 05:40:27;;;;;;;12.13;6.40;;;;;;;6.71;72.67;98892.03;5449815;26;20344;-68
2024/04/17 05:42:57;;;;;;;11.73;6.97;;;;;;;6.68;72.44;98898.03;5447806;26;20290;-66
2024/04/17 05:45:27;;;;;;;9.97;6.93;;;;;;;6.64;73.15;98896.41;5445933;26;20350;-71
2024/04/17 05:47:54;;;;;;;8.37;6.43;;;;;;;6.60;72.83;98894.75;5448458;26;20658;-67
2024/04/17 05:50:24;;;;;;;9.67;6.70;;;;;;;6.53;73.61;98901.66;5441726;26;20241;-72
2024/04/17 05:52:51;;;;;;;10.70;6.60;;;;;;;6.47;74.16;98899.16;5442830;26;20313;-68
2024/04/17 05:55:21;;;;;;;8.47;6.40;;;;;;;6.51;75.14;98900.81;5448065;26;20338;-69
2024/04/17 05:57:48;;;;;;;11.67;7.07;;;;;;;6.63;75.07;98896.41;5448496;26;20310;-63
2024/04/17 06:00:21;;;;;;;7.97;6.00;;;;;;;6.95;75.76;98895.94;5445651;26;20750;-62
2024/04/17 06:02:49;;;;;;;10.10;5.87;;;;;;;7.57;73.05;98906.00;5451757;26;20729;-62
2024/04/17 06:05:19;;;;;;;9.77;6.73;;;;;;;8.92;70.44;98899.00;5438733;26;20242;-64
2024/04/17 06:07:46;;;;;;;9.77;5.67;;;;;;;10.29;65.30;98892.03;5440982;26;20829;-63
2024/04/17 06:10:16;;;;;;;7.57;5.33;;;;;;;11.37;61.48;98887.78;5452409;26;20284;-64
2024/04/17 06:12:44;;;;;;;7.93;5.67;;;;;;;12.66;57.81;98872.00;5450347;26;20238;-64
2024/04/17 06:15:14;;;;;;;7.70;5.20;;;;;;;13.21;52.05;98877.56;5452686;26;20234;-64
2024/04/17 06:17:43;;;;;;;6.90;4.90;;;;;;;12.93;52.26;98889.03;5451638;26;20233;-62
2024/04/17 06:20:14;;;;;;;9.93;5.60;;;;;;;12.36;52.67;98892.09;5451174;26;20296;-64
2024/04/17 06:22:47;;;;;;;8.53;5.23;;;;;;;12.41;53.86;98893.63;5448206;26;21084;-67
2024/04/17 06:25:15;;;;;;;6.97;4.93;;;;;;;12.11;53.87;98894.72;5449390;26;20258;-65
2024/04/17 06:27:45;;;;;;;6.97;5.17;;;;;;;11.48;55.79;98895.16;5448291;26;20615;-69
2024/04/17 06:30:12;;;;;;;8.00;5.67;;;;;;;11.28;57.74;98902.72;5450534;26;20254;-63
2024/04/17 06:32:47;;;;;;;8.23;5.80;;;;;;;10.97;58.18;98905.44;5452178;26;20294;-62
2024/04/17 06:35:15;;;;;;;7.40;5.03;;;;;;;10.53;59.79;98903.34;5452023;26;20317;-62
2024/04/17 06:37:45;;;;;;;7.13;5.60;;;;;;;10.21;60.54;98908.53;5450039;26;20246;-63
2024/04/17 06:40:12;;;;;;;9.23;6.10;;;;;;;9.78;61.63;98917.44;5453076;26;20234;-68
2024/04/17 06:42:42;;;;;;;6.97;5.50;;;;;;;9.33;63.44;98922.88;5451096;26;20792;-67
2024/04/17 06:45:09;;;;;;;9.87;5.67;;;;;;;9.11;64.87;98927.69;5448843;26;20280;-67
2024/04/17 06:47:43;;;;;;;7.33;5.93;;;;;;;8.84;64.40;98922.31;5447145;26;20296;-67
2024/04/17 06:50:13;;;;;;;6.37;5.27;;;;;;;8.78;65.96;98937.00;5453588;26;20353;-66
2024/04/17 06:52:43;;;;;;;9.60;5.40;;;;;;;8.83;66.22;98925.72;5453601;26;20351;-67
2024/04/17 06:55:10;;;;;;;7.73;4.83;;;;;;;9.09;66.60;98927.69;5422361;26;20281;-68
2024/04/17 06:57:40;;;;;;;6.87;4.97;;;;;;;9.38;65.47;98931.31;5418221;26;20287;-66
2024/04/17 07:00:09;;;;;;;7.80;5.10;;;;;;;9.34;63.03;98937.41;5416917;26;20590;-66
2024/04/17 07:02:39;;;;;;;6.13;4.73;;;;;;;9.03;63.61;98927.03;5452680;26;20342;-64
2024/04/17 07:05:20;;;;;;;7.77;4.50;;;;;;;8.89;64.13;98945.31;5440948;26;20682;-67
2024/04/17 07:07:50;;;;;;;6.33;4.13;;;;;;;9.00;65.36;98947.63;5452566;26;20720;-68
2024/04/17 07:10:21;;;;;;;6.67;4.73;;;;;;;9.23;64.63;98942.78;5453343;26;20222;-67
2024/04/17 07:12:53;;;;;;;7.53;4.30;;;;;;;10.32;63.53;98942.59;5425305;26;20251;-69
2024/04/17 07:15:20;;;;;;;6.70;4.20;;;;;;;10.77;58.97;98935.25;5440211;26;20257;-70
2024/04/17 07:17:51;;;;;;;4.97;4.37;;;;;;;10.66;57.48;98936.47;5437406;26;20276;-68
2024/04/17 07:20:21;;;;;;;4.53;3.80;;;;;;;10.16;58.03;98944.69;5445611;26;20234;-65
2024/04/17 07:22:51;;;;;;;5.13;4.27;;;;;;;9.92;60.18;98936.75;5452175;26;20583;-64
2024/04/17 07:25:18;;;;;;;5.20;4.37;;;;;;;10.66;59.10;98933.88;5451581;26;20796;-68
2024/04/17 07:27:48;;;;;;;4.67;4.17;;;;;;;11.09;57.39;98926.53;5433337;26;20587;-63
2024/04/17 07:30:15;;;;;;;5.67;4.37;;;;;;;11.88;57.26;98934.28;5434528;26;20235;-62
2024/04/17 07:32:48;;;;;;;5.47;4.60;;;;;;;13.13;51.87;98921.00;5443218;26;20250;-68
2024/04/17 07:35:15;;;;;;;4.70;4.10;;;;;;;13.56;49.83;98922.72;5458869;26;20868;-67
2024/04/17 07:37:48;;;;;;;4.80;4.23;;;;;;;12.85;48.26;98923.81;5434690;26;20288;-62
2024/04/17 07:40:15;;;;;;;4.67;4.27;;;;;;;12.27;51.91;98935.44;5450800;26;20480;-60
2024/04/17 07:42:45;;;;;;;6.20;4.70;;;;;;;12.62;51.80;98940.22;5416675;26;20223;-60
2024/04/17 07:45:12;;;;;;;6.10;4.43;;;;;;;13.41;49.01;98926.78;5445972;26;20258;-62
2024/04/17 07:47:43;;;;;;;5.72;4.97;;;;;;;14.10;49.36;98930.75;5450794;26;20348;-61
2024/04/17 07:50:10;;;;;;;5.47;4.93;;;;;;;15.55;46.95;98926.59;5452121;26;20234;-62
2024/04/17 07:52:40;;;;;;;4.30;3.90;;;;;;;15.80;43.75;98939.22;5451296;26;20234;-63
2024/04/17 07:55:10;;;;;;;8.23;4.88;;;;;;;14.53;44.46;98941.84;5451786;26;20709;-63
2024/04/17 07:57:40;;;;;;;6.15;5.10;;;;;;;14.59;47.57;98941.56;5448467;26;20292;-63
2024/04/17 08:00:08;;;;;;;5.18;4.57;;;;;;;14.97;45.39;98938.03;5451809;26;20280;-61
2024/04/17 08:02:39;;;;;;;6.70;4.85;;;;;;;14.41;45.49;98941.47;5452250;26;20311;-62
2024/04/17 08:05:07;;;;;;;5.00;4.53;;;;;;;13.65;46.17;98944.78;5450513;26;21155;-63
2024/04/17 08:07:37;;;;;;;5.07;4.38;;;;;;;12.42;48.38;98959.88;5450190;26;20282;-62
2024/04/17 08:10:04;;;;;;;4.85;4.38;;;;;;;11.33;51.56;98962.72;5451595;26;20294;-63
2024/04/17 08:12:40;;;;;;;6.13;4.40;;;;;;;10.54;54.06;98961.69;5448132;26;20350;-62
2024/04/17 08:15:08;;;;;;;4.53;4.00;;;;;;;9.80;57.32;98960.25;5440786;26;20285;-63
2024/04/17 08:17:38;;;;;;;4.90;4.47;;;;;;;9.28;59.47;98965.81;5451559;26;20330;-62
2024/04/17 08:20:06;;;;;;;4.37;3.97;;;;;;;9.04;60.84;98960.38;5451495;26;20311;-62
2024/04/17 08:22:36;;;;;;;4.70;4.20;;;;;;;8.97;61.97;98969.09;5451579;26;20238;-61
2024/04/17 08:25:03;;;;;;;4.60;4.20;;;;;;;8.97;62.40;98968.25;5450200;26;20242;-62
2024/04/17 08:27:33;;;;;;;5.57;4.67;;;;;;;8.95;62.52;98966.56;5447002;26;20245;-64
2024/04/17 08:30:04;;;;;;;5.67;4.80;;;;;;;9.21;62.42;98964.28;5450130;26;21159;-63
2024/04/17 08:32:33;;;;;;;5.10;4.57;;;;;;;9.39;61.54;98963.88;5446211;26;20348;-63
2024/04/17 08:35:01;;;;;;;5.00;4.50;;;;;;;9.42;61.67;98966.34;5450260;26;20745;-60
2024/04/17 08:37:32;;;;;;;4.93;4.50;;;;;;;9.34;60.95;98978.53;5450566;26;21130;-62
2024/04/17 08:39:59;;;;;;;5.23;4.73;;;;;;;9.13;61.62;98970.47;5448768;26;20613;-62
2024/04/17 08:42:31;;;;;;;5.63;5.00;;;;;;;9.15;62.25;98968.69;5451244;26;20276;-63
2024/04/17 08:45:06;;;;;;;5.33;4.83;;;;;;;9.39;62.58;98972.41;5427071;26;20238;-62
2024/04/17 08:47:38;;;;;;;6.50;4.93;;;;;;;9.57;61.41;98972.81;5451104;26;20402;-62
2024/04/17 08:50:06;;;;;;;5.67;4.40;;;;;;;10.17;62.22;98972.16;5447197;26;20254;-60
2024/04/17 08:52:39;;;;;;;5.40;4.37;;;;;;;10.63;59.37;98968.28;5450599;26;20692;-60
2024/04/17 08:55:07;;;;;;;5.20;4.70;;;;;;;10.43;58.85;98963.72;5454223;26;20330;-59
2024/04/17 08:57:37;;;;;;;6.00;5.03;;;;;;;10.30;60.18;98973.50;5466496;26;20334;-62
2024/04/17 09:00:08;;;;;;;6.43;5.47;;;;;;;9.76;61.47;98974.06;5450477;26;20234;-61
2024/04/17 09:02:43;;;;;;;5.90;5.30;;;;;;;9.35;63.38;98972.50;5450945;26;20808;-61
2024/04/17 09:05:12;;;;;;;5.37;4.87;;;;;;;9.38;63.52;98980.97;5447957;26;20302;-60
2024/04/17 09:07:43;;;;;;;5.90;5.20;;;;;;;9.89;62.92;98977.16;5447837;26;20349;-61
2024/04/17 09:10:10;;;;;;;6.93;5.67;;;;;;;10.42;60.60;98966.31;5448808;26;20404;-63
2024/04/17 09:12:44;;;;;;;5.83;5.23;;;;;;;10.60;59.37;98979.56;5441982;26;20306;-61
2024/04/17 09:15:16;;;;;;;7.20;5.47;;;;;;;10.46;59.88;98966.22;5434497;26;20233;-62
2024/04/17 09:17:46;;;;;;;6.40;5.60;;;;;;;10.15;60.35;98979.06;5450945;26;20713;-60
2024/04/17 09:20:14;;;;;;;6.77;5.70;;;;;;;9.95;61.40;98984.75;5450321;26;20258;-59
2024/04/17 09:22:44;;;;;;;5.80;5.20;;;;;;;9.86;60.94;98997.81;5451079;26;20330;-59
2024/04/17 09:25:14;;;;;;;5.67;5.17;;;;;;;9.69;62.58;98993.13;5450857;26;20613;-59
2024/04/17 09:27:44;;;;;;;6.47;5.00;;;;;;;9.67;62.18;98987.16;5446231;26;20253;-58
2024/04/17 09:30:15;;;;;;;5.43;4.73;;;;;;;9.52;62.92;98993.53;5449000;26;20717;-61
2024/04/17 09:32:46;;;;;;;6.87;5.57;;;;;;;9.37;63.47;98997.31;5450580;26;20238;-58
2024/04/17 09:35:14;;;;;;;5.50;5.00;;;;;;;9.32;64.30;98998.31;5449486;26;20362;-63
2024/04/17 09:37:44;;;;;;;6.23;5.10;;;;;;;9.31;64.42;99007.72;5448941;26;20234;-60
2024/04/17 09:40:11;;;;;;;5.87;5.27;;;;;;;9.09;64.28;99009.94;5448869;26;20234;-59
2024/04/17 09:42:42;;;;;;;5.80;5.20;;;;;;;8.99;65.38;99013.59;5449487;26;20246;-62
2024/04/17 09:45:21;;;;;;;13.60;5.40;;;;;;;8.90;65.29;99006.06;5449855;26;20238;-61
2024/04/17 09:47:52;;;;;;;5.40;4.90;;;;;;;8.79;66.11;99023.44;5450112;26;20338;-59
2024/04/17 09:50:23;;;;;;;6.07;5.00;;;;;;;8.72;66.86;99025.28;5449150;26;20306;-58
2024/04/17 09:52:57;;;;;;;7.50;5.60;;;;;;;8.65;67.12;99026.28;5449344;26;20246;-58
2024/04/17 09:55:25;;;;;;;6.53;4.87;;;;;;;8.58;66.89;99023.00;5449279;26;20238;-63
2024/04/17 09:57:56;;;;;;;6.30;5.03;;;;;;;8.54;67.19;99030.78;5448792;26;20233;-61
2024/04/17 10:00:28;;;;;;;5.67;5.17;;;;;;;8.55;68.65;99035.06;5446186;26;20284;-61
2024/04/17 10:02:59;;;;;;;5.47;4.90;;;;;;;8.51;69.21;99031.72;5448493;26;20338;-61
2024/04/17 10:05:27;;;;;;;5.60;5.00;;;;;;;8.49;69.46;99032.59;5449137;26;20242;-61
2024/04/17 10:07:57;;;;;;;5.87;4.43;;;;;;;8.41;69.70;99033.59;5449459;26;20689;-61
2024/04/17 10:10:26;;;;;;;6.53;4.67;;;;;;;8.30;70.46;99030.34;5449197;26;20647;-59
2024/04/17 10:12:57;;;;;;;6.17;4.30;;;;;;;8.14;70.55;99031.53;5449795;26;20682;-63
2024/04/17 10:15:27;;;;;;;7.07;4.77;;;;;;;8.12;71.48;99034.09;5449414;26;20311;-59
2024/04/17 10:17:57;;;;;;;6.93;5.27;;;;;;;8.12;71.94;99041.78;5447520;26;20249;-61
2024/04/17 10:20:26;;;;;;;4.73;4.27;;;;;;;8.07;72.02;99041.03;5449264;26;20233;-60
2024/04/17 10:23:04;;;;;;;5.10;4.60;;;;;;;7.99;71.94;99037.78;5449949;26;20764;-60
2024/04/17 10:25:32;;;;;;;5.40;4.90;;;;;;;7.87;73.07;99043.09;5449094;26;20284;-66
2024/04/17 10:28:13;;;;;;;4.57;4.13;;;;;;;7.78;73.37;99043.25;5441755;26;20276;-62
2024/04/17 10:30:47;;;;;;;5.57;4.00;;;;;;;7.72;73.97;99052.72;5447967;26;20241;-62
2024/04/17 10:33:28;;;;;;;4.57;4.13;;;;;;;7.77;73.90;99046.66;5446680;26;20250;-60
2024/04/17 10:35:56;;;;;;;4.77;4.20;;;;;;;7.85;73.37;99057.66;5435252;26;20582;-61
2024/04/17 10:38:27;;;;;;;5.40;4.60;;;;;;;7.86;73.83;99054.22;5441093;26;20334;-60
2024/04/17 10:41:01;;;;;;;4.70;3.80;;;;;;;7.91;74.51;99060.97;5442825;26;20858;-59
2024/04/17 10:43:33;;;;;;;4.90;3.87;;;;;;;7.92;73.73;99057.53;5448305;26;20626;-60
2024/04/17 10:46:08;;;;;;;5.57;4.17;;;;;;;7.97;74.29;99063.44;5448329;26;20234;-61
2024/04/17 10:48:48;;;;;;;4.50;4.10;;;;;;;8.03;74.32;99077.00;5451130;26;20276;-62
2024/04/17 10:51:16;;;;;;;4.10;3.60;;;;;;;8.01;72.89;99071.94;5451762;26;20614;-60
2024/04/17 10:53:47;;;;;;;5.00;3.57;;;;;;;8.00;73.39;99065.09;5453228;26;20342;-61
2024/04/17 10:56:16;;;;;;;3.50;3.20;;;;;;;8.00;72.01;99070.25;5452556;26;20230;-60
2024/04/17 10:58:46;;;;;;;3.63;3.30;;;;;;;8.02;72.56;99063.34;5452811;26;20723;-61
2024/04/17 11:01:16;;;;;;;5.53;3.60;;;;;;;8.09;72.98;99064.94;5452119;26;20254;-61
2024/04/17 11:03:46;;;;;;;4.33;3.80;;;;;;;8.15;73.37;99059.72;5452688;26;20286;-60
2024/04/17 11:06:14;;;;;;;3.40;3.10;;;;;;;8.29;73.76;99066.31;5452981;26;20649;-61
2024/04/17 11:08:45;;;;;;;3.60;3.30;;;;;;;8.36;73.23;99066.19;5452687;26;20334;-62
2024/04/17 11:11:27;;;;;;;4.87;3.40;;;;;;;8.41;72.86;99068.69;5437108;26;20289;-62
2024/04/17 11:13:55;;;;;;;4.27;3.43;;;;;;;8.49;72.57;99077.09;5434016;26;20589;-61
2024/04/17 11:16:27;;;;;;;4.07;3.67;;;;;;;8.58;72.84;99069.22;5451229;26;20258;-62
2024/04/17 11:18:55;;;;;;;5.30;3.53;;;;;;;8.61;72.52;99079.41;5452493;26;20624;-61
2024/04/17 11:21:25;;;;;;;4.83;3.37;;;;;;;8.62;71.92;99070.03;5450152;26;20829;-61
2024/04/17 11:23:52;;;;;;;3.90;3.50;;;;;;;8.68;71.75;99067.31;5451969;26;20276;-61
2024/04/17 11:26:22;;;;;;;3.83;3.50;;;;;;;8.74;71.45;99074.06;5452154;26;20273;-61
2024/04/17 11:28:49;;;;;;;4.93;4.23;;;;;;;8.70;71.48;99074.13;5452251;26;20721;-60
2024/04/17 11:31:21;;;;;;;4.73;3.83;;;;;;;8.67;71.18;99076.75;5451251;26;20614;-64
2024/04/17 11:33:50;;;;;;;3.93;3.57;;;;;;;8.67;70.86;99079.31;5452138;26;20250;-61
2024/04/17 11:36:20;;;;;;;8.27;5.07;;;;;;;8.64;70.89;99081.94;5448125;26;20673;-60
2024/04/17 11:38:48;;;;;;;5.63;5.13;;;;;;;8.63;71.67;99082.81;5444572;26;20246;-62
2024/04/17 11:41:17;;;;;;;5.30;4.80;;;;;;;8.62;71.43;99086.25;5444045;26;20279;-61
2024/04/17 11:43:45;;;;;;;6.57;5.60;;;;;;;8.65;73.00;99086.22;5438530;26;20281;-63
2024/04/17 11:46:17;;;;;;;6.20;5.60;;;;;;;8.66;72.92;99087.91;5451027;26;20280;-61
2024/04/17 11:48:46;;;;;;;7.33;6.03;;;;;;;8.69;72.85;99090.41;5451259;26;20613;-62
2024/04/17 11:51:18;;;;;;;6.20;5.60;;;;;;;8.69;73.15;99090.41;5450698;26;20234;-61